sensor_id;sensor_type;location;lat;lon;timestamp;pressure;altitude;pressure_sealevel;temperature;humidity
34742;BME280;20968;42.696;23.360;2023-03-14T00:01:46;95492.16;;;7.88;42.14
34742;BME280;20968;42.696;23.360;2023-03-14T00:04:11;95476.59;;;7.85;42.49
34742;BME280;20968;42.696;23.360;2023-03-14T00:06:36;95478.75;;;7.81;41.96
34742;BME280;20968;42.696;23.360;2023-03-14T00:09:02;95470.94;;;7.71;41.85
34742;BME280;20968;42.696;23.360;2023-03-14T00:11:28;95463.16;;;7.69;42.14
34742;BME280;20968;42.696;23.360;2023-03-14T00:13:54;95463.31;;;7.66;42.37
34742;BME280;20968;42.696;23.360;2023-03-14T00:16:20;95463.78;;;7.73;43.13
34742;BME280;20968;42.696;23.360;2023-03-14T00:18:46;95455.78;;;7.48;42.79
34742;BME280;20968;42.696;23.360;2023-03-14T00:21:12;95444.19;;;7.44;43.14
34742;BME280;20968;42.696;23.360;2023-03-14T00:23:39;95449.00;;;7.62;43.10
34742;BME280;20968;42.696;23.360;2023-03-14T00:26:11;95447.00;;;7.62;43.50
34742;BME280;20968;42.696;23.360;2023-03-14T00:28:38;95446.88;;;7.66;43.04
34742;BME280;20968;42.696;23.360;2023-03-14T00:31:05;95435.88;;;7.57;43.28
34742;BME280;20968;42.696;23.360;2023-03-14T00:33:31;95436.34;;;7.55;43.38
34742;BME280;20968;42.696;23.360;2023-03-14T00:35:58;95434.09;;;7.63;43.69
34742;BME280;20968;42.696;23.360;2023-03-14T00:38:24;95429.06;;;7.70;43.91
34742;BME280;20968;42.696;23.360;2023-03-14T00:40:54;95426.00;;;7.68;44.13
34742;BME280;20968;42.696;23.360;2023-03-14T00:43:20;95423.88;;;7.63;43.45
34742;BME280;20968;42.696;23.360;2023-03-14T00:45:52;95427.53;;;7.69;43.35
34742;BME280;20968;42.696;23.360;2023-03-14T00:48:20;95425.50;;;7.52;43.41
34742;BME280;20968;42.696;23.360;2023-03-14T00:50:46;95422.88;;;7.39;44.20
34742;BME280;20968;42.696;23.360;2023-03-14T00:53:12;95423.91;;;7.24;44.07
34742;BME280;20968;42.696;23.360;2023-03-14T00:55:39;95424.22;;;7.35;44.27
34742;BME280;20968;42.696;23.360;2023-03-14T00:58:05;95408.41;;;7.30;44.45
34742;BME280;20968;42.696;23.360;2023-03-14T01:00:30;95416.81;;;7.44;43.99
34742;BME280;20968;42.696;23.360;2023-03-14T01:02:56;95411.41;;;7.23;44.41
34742;BME280;20968;42.696;23.360;2023-03-14T01:05:22;95408.22;;;7.24;44.48
34742;BME280;20968;42.696;23.360;2023-03-14T01:07:48;95405.91;;;7.14;44.53
34742;BME280;20968;42.696;23.360;2023-03-14T01:10:14;95409.88;;;7.22;44.96
34742;BME280;20968;42.696;23.360;2023-03-14T01:12:40;95411.25;;;7.17;44.83
34742;BME280;20968;42.696;23.360;2023-03-14T01:15:06;95410.63;;;7.13;44.51
34742;BME280;20968;42.696;23.360;2023-03-14T01:17:31;95386.22;;;6.97;45.41
34742;BME280;20968;42.696;23.360;2023-03-14T01:19:57;95389.03;;;6.85;45.49
34742;BME280;20968;42.696;23.360;2023-03-14T01:22:22;95389.78;;;6.86;45.42
34742;BME280;20968;42.696;23.360;2023-03-14T01:24:48;95387.91;;;6.74;45.68
34742;BME280;20968;42.696;23.360;2023-03-14T01:27:13;95390.84;;;6.79;45.58
34742;BME280;20968;42.696;23.360;2023-03-14T01:29:39;95388.44;;;6.90;45.91
34742;BME280;20968;42.696;23.360;2023-03-14T01:32:04;95377.78;;;6.83;45.45
34742;BME280;20968;42.696;23.360;2023-03-14T01:34:30;95381.72;;;6.82;44.73
34742;BME280;20968;42.696;23.360;2023-03-14T01:36:55;95388.81;;;6.71;45.65
34742;BME280;20968;42.696;23.360;2023-03-14T01:39:21;95367.25;;;6.73;45.74
34742;BME280;20968;42.696;23.360;2023-03-14T01:41:46;95364.44;;;6.64;45.38
34742;BME280;20968;42.696;23.360;2023-03-14T01:44:12;95359.78;;;6.73;45.41
34742;BME280;20968;42.696;23.360;2023-03-14T01:46:39;95374.16;;;6.86;45.33
34742;BME280;20968;42.696;23.360;2023-03-14T01:49:10;95364.59;;;6.91;45.57
34742;BME280;20968;42.696;23.360;2023-03-14T01:51:44;95363.13;;;6.98;45.52
34742;BME280;20968;42.696;23.360;2023-03-14T01:54:21;95357.94;;;7.00;45.58
34742;BME280;20968;42.696;23.360;2023-03-14T01:56:55;95357.78;;;7.04;45.45
34742;BME280;20968;42.696;23.360;2023-03-14T01:59:23;95345.81;;;7.10;45.68
34742;BME280;20968;42.696;23.360;2023-03-14T02:01:50;95353.28;;;7.19;45.49
34742;BME280;20968;42.696;23.360;2023-03-14T02:04:17;95339.59;;;7.10;45.35
34742;BME280;20968;42.696;23.360;2023-03-14T02:07:20;95354.66;;;7.23;46.18
34742;BME280;20968;42.696;23.360;2023-03-14T02:09:48;95357.53;;;7.20;45.60
34742;BME280;20968;42.696;23.360;2023-03-14T02:12:16;95334.41;;;7.12;45.45
34742;BME280;20968;42.696;23.360;2023-03-14T02:14:43;95351.50;;;7.25;45.14
34742;BME280;20968;42.696;23.360;2023-03-14T02:17:13;95340.38;;;7.19;45.46
34742;BME280;20968;42.696;23.360;2023-03-14T02:19:52;95352.09;;;7.29;45.46
34742;BME280;20968;42.696;23.360;2023-03-14T02:22:20;95336.41;;;7.20;45.51
34742;BME280;20968;42.696;23.360;2023-03-14T02:25:17;95342.50;;;7.24;46.02
34742;BME280;20968;42.696;23.360;2023-03-14T02:27:48;95340.81;;;7.18;46.48
34742;BME280;20968;42.696;23.360;2023-03-14T02:30:23;95339.44;;;7.22;46.55
34742;BME280;20968;42.696;23.360;2023-03-14T02:33:03;95343.84;;;7.20;46.40
34742;BME280;20968;42.696;23.360;2023-03-14T02:35:59;95333.81;;;7.17;46.49
34742;BME280;20968;42.696;23.360;2023-03-14T02:39:01;95328.19;;;7.11;46.81
34742;BME280;20968;42.696;23.360;2023-03-14T02:41:29;95355.09;;;7.13;46.67
34742;BME280;20968;42.696;23.360;2023-03-14T02:43:54;95364.97;;;7.10;46.80
34742;BME280;20968;42.696;23.360;2023-03-14T02:46:21;95369.25;;;7.11;46.21
34742;BME280;20968;42.696;23.360;2023-03-14T02:49:01;95357.38;;;7.05;46.41
34742;BME280;20968;42.696;23.360;2023-03-14T02:51:28;95349.44;;;6.98;46.68
34742;BME280;20968;42.696;23.360;2023-03-14T02:53:54;95349.28;;;7.02;46.55
34742;BME280;20968;42.696;23.360;2023-03-14T02:56:20;95363.00;;;7.11;46.85
34742;BME280;20968;42.696;23.360;2023-03-14T02:58:45;95362.28;;;6.89;46.76
34742;BME280;20968;42.696;23.360;2023-03-14T03:01:10;95363.22;;;6.86;47.08
34742;BME280;20968;42.696;23.360;2023-03-14T03:03:36;95365.94;;;6.86;47.03
34742;BME280;20968;42.696;23.360;2023-03-14T03:06:02;95356.16;;;6.76;47.17
34742;BME280;20968;42.696;23.360;2023-03-14T03:08:28;95357.88;;;6.83;47.27
34742;BME280;20968;42.696;23.360;2023-03-14T03:10:54;95369.28;;;6.90;47.29
34742;BME280;20968;42.696;23.360;2023-03-14T03:13:21;95347.94;;;6.76;47.99
34742;BME280;20968;42.696;23.360;2023-03-14T03:15:46;95360.91;;;6.85;48.13
34742;BME280;20968;42.696;23.360;2023-03-14T03:18:12;95345.69;;;6.75;47.79
34742;BME280;20968;42.696;23.360;2023-03-14T03:20:38;95363.78;;;6.81;48.05
34742;BME280;20968;42.696;23.360;2023-03-14T03:23:04;95354.19;;;6.77;47.89
34742;BME280;20968;42.696;23.360;2023-03-14T03:25:29;95347.44;;;6.69;47.85
34742;BME280;20968;42.696;23.360;2023-03-14T03:27:55;95353.84;;;6.66;47.91
34742;BME280;20968;42.696;23.360;2023-03-14T03:30:21;95361.63;;;6.76;47.86
34742;BME280;20968;42.696;23.360;2023-03-14T03:32:47;95360.75;;;6.79;48.29
34742;BME280;20968;42.696;23.360;2023-03-14T03:35:12;95350.03;;;6.72;48.09
34742;BME280;20968;42.696;23.360;2023-03-14T03:37:38;95357.03;;;6.73;48.51
34742;BME280;20968;42.696;23.360;2023-03-14T03:40:04;95356.75;;;6.71;48.54
34742;BME280;20968;42.696;23.360;2023-03-14T03:42:32;95357.50;;;6.72;48.63
34742;BME280;20968;42.696;23.360;2023-03-14T03:44:59;95349.25;;;6.63;49.04
34742;BME280;20968;42.696;23.360;2023-03-14T03:47:24;95351.56;;;6.64;48.73
34742;BME280;20968;42.696;23.360;2023-03-14T03:49:50;95354.09;;;6.59;49.25
34742;BME280;20968;42.696;23.360;2023-03-14T03:52:15;95365.66;;;6.63;49.31
34742;BME280;20968;42.696;23.360;2023-03-14T03:54:41;95367.38;;;6.69;48.91
34742;BME280;20968;42.696;23.360;2023-03-14T03:57:08;95368.53;;;6.59;49.25
34742;BME280;20968;42.696;23.360;2023-03-14T03:59:33;95363.41;;;6.40;49.50
34742;BME280;20968;42.696;23.360;2023-03-14T04:01:59;95361.88;;;6.39;49.34
34742;BME280;20968;42.696;23.360;2023-03-14T04:04:24;95359.59;;;6.37;49.53
34742;BME280;20968;42.696;23.360;2023-03-14T04:06:50;95358.38;;;6.38;49.73
34742;BME280;20968;42.696;23.360;2023-03-14T04:09:18;95371.66;;;6.49;49.92
34742;BME280;20968;42.696;23.360;2023-03-14T04:11:43;95368.31;;;6.45;49.91
34742;BME280;20968;42.696;23.360;2023-03-14T04:14:08;95362.50;;;6.43;50.19
34742;BME280;20968;42.696;23.360;2023-03-14T04:16:34;95365.56;;;6.45;50.07
34742;BME280;20968;42.696;23.360;2023-03-14T04:19:00;95362.06;;;6.44;49.84
34742;BME280;20968;42.696;23.360;2023-03-14T04:21:26;95359.97;;;6.48;49.74
34742;BME280;20968;42.696;23.360;2023-03-14T04:23:51;95352.66;;;6.45;50.16
34742;BME280;20968;42.696;23.360;2023-03-14T04:26:17;95336.09;;;6.49;49.75
34742;BME280;20968;42.696;23.360;2023-03-14T04:28:43;95323.91;;;6.41;49.95
34742;BME280;20968;42.696;23.360;2023-03-14T04:31:17;95348.25;;;6.48;50.24
34742;BME280;20968;42.696;23.360;2023-03-14T04:33:43;95335.63;;;6.41;50.74
34742;BME280;20968;42.696;23.360;2023-03-14T04:36:09;95332.38;;;6.34;50.39
34742;BME280;20968;42.696;23.360;2023-03-14T04:38:36;95332.25;;;6.37;50.32
34742;BME280;20968;42.696;23.360;2023-03-14T04:41:02;95329.19;;;6.35;50.28
34742;BME280;20968;42.696;23.360;2023-03-14T04:43:28;95331.38;;;6.40;50.24
34742;BME280;20968;42.696;23.360;2023-03-14T04:45:54;95322.97;;;6.35;50.59
34742;BME280;20968;42.696;23.360;2023-03-14T04:48:20;95320.69;;;6.33;51.01
34742;BME280;20968;42.696;23.360;2023-03-14T04:50:47;95329.50;;;6.37;50.83
34742;BME280;20968;42.696;23.360;2023-03-14T04:53:13;95313.56;;;6.36;50.64
34742;BME280;20968;42.696;23.360;2023-03-14T04:55:39;95312.03;;;6.35;49.98
34742;BME280;20968;42.696;23.360;2023-03-14T04:58:04;95316.34;;;6.45;50.31
34742;BME280;20968;42.696;23.360;2023-03-14T05:00:30;95312.09;;;6.44;50.31
34742;BME280;20968;42.696;23.360;2023-03-14T05:02:55;95315.75;;;6.50;50.52
34742;BME280;20968;42.696;23.360;2023-03-14T05:05:20;95324.28;;;6.52;50.66
34742;BME280;20968;42.696;23.360;2023-03-14T05:07:46;95318.16;;;6.48;50.42
34742;BME280;20968;42.696;23.360;2023-03-14T05:10:12;95302.81;;;6.41;50.51
34742;BME280;20968;42.696;23.360;2023-03-14T05:12:37;95323.31;;;6.46;50.82
34742;BME280;20968;42.696;23.360;2023-03-14T05:15:03;95295.31;;;6.33;50.68
34742;BME280;20968;42.696;23.360;2023-03-14T05:17:31;95307.88;;;7.75;72.29
34742;BME280;20968;42.696;23.360;2023-03-14T05:19:57;95316.59;;;8.77;64.67
34742;BME280;20968;42.696;23.360;2023-03-14T05:22:22;95315.13;;;9.32;59.56
34742;BME280;20968;42.696;23.360;2023-03-14T05:24:48;95322.44;;;9.82;54.83
34742;BME280;20968;42.696;23.360;2023-03-14T05:27:19;95314.88;;;10.14;51.77
34742;BME280;20968;42.696;23.360;2023-03-14T05:29:44;95307.59;;;10.26;49.97
34742;BME280;20968;42.696;23.360;2023-03-14T05:32:09;95324.34;;;10.66;48.70
34742;BME280;20968;42.696;23.360;2023-03-14T05:34:35;95314.56;;;10.65;43.97
34742;BME280;20968;42.696;23.360;2023-03-14T05:37:00;95321.00;;;10.47;43.30
34742;BME280;20968;42.696;23.360;2023-03-14T05:39:26;95306.81;;;10.11;42.44
34742;BME280;20968;42.696;23.360;2023-03-14T05:41:51;95319.94;;;9.93;42.36
34742;BME280;20968;42.696;23.360;2023-03-14T05:44:19;95310.06;;;9.63;42.82
34742;BME280;20968;42.696;23.360;2023-03-14T05:46:44;95317.13;;;9.55;43.83
34742;BME280;20968;42.696;23.360;2023-03-14T05:49:09;95317.19;;;9.46;43.92
34742;BME280;20968;42.696;23.360;2023-03-14T05:51:35;95308.78;;;9.26;44.64
34742;BME280;20968;42.696;23.360;2023-03-14T05:54:00;95321.03;;;9.16;44.78
34742;BME280;20968;42.696;23.360;2023-03-14T05:56:26;95327.44;;;9.13;44.13
34742;BME280;20968;42.696;23.360;2023-03-14T05:58:51;95317.84;;;9.09;44.87
34742;BME280;20968;42.696;23.360;2023-03-14T06:01:16;95311.81;;;8.87;44.96
34742;BME280;20968;42.696;23.360;2023-03-14T06:03:42;95323.44;;;8.82;44.92
34742;BME280;20968;42.696;23.360;2023-03-14T06:06:07;95323.81;;;8.66;44.98
34742;BME280;20968;42.696;23.360;2023-03-14T06:09:11;95320.00;;;8.63;45.34
34742;BME280;20968;42.696;23.360;2023-03-14T06:11:37;95311.00;;;8.63;46.54
34742;BME280;20968;42.696;23.360;2023-03-14T06:14:02;95304.03;;;8.44;46.36
34742;BME280;20968;42.696;23.360;2023-03-14T06:16:28;95302.69;;;8.31;46.26
34742;BME280;20968;42.696;23.360;2023-03-14T06:18:53;95300.44;;;8.20;45.88
34742;BME280;20968;42.696;23.360;2023-03-14T06:21:19;95315.03;;;8.26;46.56
34742;BME280;20968;42.696;23.360;2023-03-14T06:23:45;95311.41;;;8.20;47.01
34742;BME280;20968;42.696;23.360;2023-03-14T06:26:10;95318.69;;;8.32;47.47
34742;BME280;20968;42.696;23.360;2023-03-14T06:28:37;95320.81;;;8.46;47.01
34742;BME280;20968;42.696;23.360;2023-03-14T06:31:06;95317.63;;;8.39;46.89
34742;BME280;20968;42.696;23.360;2023-03-14T06:33:31;95315.94;;;8.41;47.06
34742;BME280;20968;42.696;23.360;2023-03-14T06:36:00;95314.56;;;8.46;45.83
34742;BME280;20968;42.696;23.360;2023-03-14T06:38:26;95312.28;;;8.44;45.84
34742;BME280;20968;42.696;23.360;2023-03-14T06:40:51;95313.16;;;8.50;45.84
34742;BME280;20968;42.696;23.360;2023-03-14T06:43:17;95316.16;;;8.70;46.27
34742;BME280;20968;42.696;23.360;2023-03-14T06:45:42;95300.72;;;8.81;45.17
34742;BME280;20968;42.696;23.360;2023-03-14T06:48:08;95308.56;;;8.97;45.10
34742;BME280;20968;42.696;23.360;2023-03-14T06:50:33;95298.13;;;8.78;45.27
34742;BME280;20968;42.696;23.360;2023-03-14T06:52:58;95286.25;;;8.72;44.42
34742;BME280;20968;42.696;23.360;2023-03-14T06:55:24;95279.19;;;8.89;44.75
34742;BME280;20968;42.696;23.360;2023-03-14T06:57:49;95284.25;;;9.14;44.42
34742;BME280;20968;42.696;23.360;2023-03-14T07:00:15;95289.53;;;9.26;43.80
34742;BME280;20968;42.696;23.360;2023-03-14T07:02:40;95284.56;;;9.39;44.46
34742;BME280;20968;42.696;23.360;2023-03-14T07:05:06;95271.16;;;9.55;44.90
34742;BME280;20968;42.696;23.360;2023-03-14T07:07:32;95276.84;;;9.75;43.55
34742;BME280;20968;42.696;23.360;2023-03-14T07:09:57;95275.69;;;9.82;44.46
34742;BME280;20968;42.696;23.360;2023-03-14T07:12:23;95267.97;;;9.95;43.52
34742;BME280;20968;42.696;23.360;2023-03-14T07:14:48;95269.31;;;9.99;43.04
34742;BME280;20968;42.696;23.360;2023-03-14T07:17:14;95276.56;;;10.11;42.78
34742;BME280;20968;42.696;23.360;2023-03-14T07:19:39;95275.50;;;10.08;41.60
34742;BME280;20968;42.696;23.360;2023-03-14T07:22:05;95275.69;;;10.19;42.08
34742;BME280;20968;42.696;23.360;2023-03-14T07:24:30;95265.47;;;10.20;42.23
34742;BME280;20968;42.696;23.360;2023-03-14T07:26:56;95277.44;;;10.31;41.08
34742;BME280;20968;42.696;23.360;2023-03-14T07:29:22;95270.59;;;10.41;41.29
34742;BME280;20968;42.696;23.360;2023-03-14T07:31:47;95275.16;;;10.59;41.00
34742;BME280;20968;42.696;23.360;2023-03-14T07:34:13;95264.50;;;10.66;40.52
34742;BME280;20968;42.696;23.360;2023-03-14T07:36:38;95260.78;;;10.83;39.94
34742;BME280;20968;42.696;23.360;2023-03-14T07:39:04;95254.53;;;10.83;39.33
34742;BME280;20968;42.696;23.360;2023-03-14T07:41:32;95256.19;;;10.95;40.05
34742;BME280;20968;42.696;23.360;2023-03-14T07:43:58;95250.09;;;11.05;38.98
34742;BME280;20968;42.696;23.360;2023-03-14T07:46:24;95243.81;;;11.05;39.08
34742;BME280;20968;42.696;23.360;2023-03-14T07:48:49;95238.03;;;11.03;38.61
34742;BME280;20968;42.696;23.360;2023-03-14T07:51:15;95238.69;;;11.12;38.50
34742;BME280;20968;42.696;23.360;2023-03-14T07:53:40;95241.38;;;11.27;39.41
34742;BME280;20968;42.696;23.360;2023-03-14T07:56:06;95236.97;;;11.35;37.91
34742;BME280;20968;42.696;23.360;2023-03-14T07:58:32;95250.91;;;11.46;38.43
34742;BME280;20968;42.696;23.360;2023-03-14T08:00:58;95243.63;;;11.63;36.77
34742;BME280;20968;42.696;23.360;2023-03-14T08:03:24;95233.81;;;11.42;36.31
34742;BME280;20968;42.696;23.360;2023-03-14T08:05:50;95232.97;;;11.36;37.46
34742;BME280;20968;42.696;23.360;2023-03-14T08:08:16;95231.22;;;11.53;38.35
34742;BME280;20968;42.696;23.360;2023-03-14T08:10:42;95240.16;;;11.87;38.11
34742;BME280;20968;42.696;23.360;2023-03-14T08:13:08;95232.84;;;12.04;37.77
34742;BME280;20968;42.696;23.360;2023-03-14T08:15:34;95229.56;;;12.06;36.66
34742;BME280;20968;42.696;23.360;2023-03-14T08:17:59;95228.94;;;12.16;36.12
34742;BME280;20968;42.696;23.360;2023-03-14T08:20:27;95231.66;;;12.11;36.18
34742;BME280;20968;42.696;23.360;2023-03-14T08:22:58;95236.03;;;12.23;35.74
34742;BME280;20968;42.696;23.360;2023-03-14T08:25:25;95227.38;;;12.35;36.61
34742;BME280;20968;42.696;23.360;2023-03-14T08:27:50;95234.59;;;12.58;35.98
34742;BME280;20968;42.696;23.360;2023-03-14T08:30:17;95230.44;;;12.68;34.79
34742;BME280;20968;42.696;23.360;2023-03-14T08:32:43;95217.31;;;12.63;35.09
34742;BME280;20968;42.696;23.360;2023-03-14T08:35:09;95214.38;;;12.72;35.54
34742;BME280;20968;42.696;23.360;2023-03-14T08:37:35;95223.88;;;12.96;34.81
34742;BME280;20968;42.696;23.360;2023-03-14T08:40:02;95209.31;;;12.96;34.32
34742;BME280;20968;42.696;23.360;2023-03-14T08:42:38;95210.81;;;12.97;35.16
34742;BME280;20968;42.696;23.360;2023-03-14T08:45:04;95199.34;;;13.09;34.64
34742;BME280;20968;42.696;23.360;2023-03-14T08:47:30;95192.31;;;13.08;34.24
34742;BME280;20968;42.696;23.360;2023-03-14T08:49:58;95184.56;;;13.18;34.86
34742;BME280;20968;42.696;23.360;2023-03-14T08:52:24;95190.31;;;13.14;33.89
34742;BME280;20968;42.696;23.360;2023-03-14T08:54:49;95185.81;;;13.17;34.57
34742;BME280;20968;42.696;23.360;2023-03-14T08:57:17;95189.44;;;13.39;33.38
34742;BME280;20968;42.696;23.360;2023-03-14T08:59:42;95182.41;;;13.38;32.73
34742;BME280;20968;42.696;23.360;2023-03-14T09:02:11;95181.19;;;13.50;32.92
34742;BME280;20968;42.696;23.360;2023-03-14T09:04:37;95174.19;;;13.60;33.11
34742;BME280;20968;42.696;23.360;2023-03-14T09:07:02;95147.81;;;13.64;33.95
34742;BME280;20968;42.696;23.360;2023-03-14T09:09:28;95161.41;;;13.79;33.21
34742;BME280;20968;42.696;23.360;2023-03-14T09:11:55;95151.84;;;13.80;34.10
34742;BME280;20968;42.696;23.360;2023-03-14T09:14:20;95151.63;;;13.78;35.14
34742;BME280;20968;42.696;23.360;2023-03-14T09:16:46;95138.31;;;13.93;35.31
34742;BME280;20968;42.696;23.360;2023-03-14T09:19:11;95141.84;;;14.09;33.36
34742;BME280;20968;42.696;23.360;2023-03-14T09:21:37;95140.41;;;14.25;33.80
34742;BME280;20968;42.696;23.360;2023-03-14T09:24:06;95122.78;;;14.22;33.42
34742;BME280;20968;42.696;23.360;2023-03-14T09:26:31;95133.09;;;14.27;33.07
34742;BME280;20968;42.696;23.360;2023-03-14T09:28:57;95124.03;;;14.49;31.88
34742;BME280;20968;42.696;23.360;2023-03-14T09:31:23;95123.50;;;14.67;30.82
34742;BME280;20968;42.696;23.360;2023-03-14T09:33:48;95116.22;;;14.58;31.04
34742;BME280;20968;42.696;23.360;2023-03-14T09:36:14;95111.44;;;14.48;32.23
34742;BME280;20968;42.696;23.360;2023-03-14T09:38:39;95107.91;;;14.64;31.37
34742;BME280;20968;42.696;23.360;2023-03-14T09:41:14;95090.25;;;14.67;31.21
34742;BME280;20968;42.696;23.360;2023-03-14T09:43:42;95096.72;;;14.96;31.33
34742;BME280;20968;42.696;23.360;2023-03-14T09:46:09;95085.13;;;15.03;31.59
34742;BME280;20968;42.696;23.360;2023-03-14T09:48:36;95066.72;;;15.06;32.25
34742;BME280;20968;42.696;23.360;2023-03-14T09:51:05;95061.31;;;15.35;32.43
34742;BME280;20968;42.696;23.360;2023-03-14T09:53:44;95072.00;;;15.60;30.92
34742;BME280;20968;42.696;23.360;2023-03-14T09:56:20;95061.28;;;15.81;30.89
34742;BME280;20968;42.696;23.360;2023-03-14T09:58:51;95060.00;;;15.87;31.11
34742;BME280;20968;42.696;23.360;2023-03-14T10:01:24;95056.41;;;15.92;32.21
34742;BME280;20968;42.696;23.360;2023-03-14T10:03:54;95053.56;;;16.03;32.89
34742;BME280;20968;42.696;23.360;2023-03-14T10:06:27;95047.47;;;16.10;31.51
34742;BME280;20968;42.696;23.360;2023-03-14T10:08:54;95032.66;;;16.32;30.98
34742;BME280;20968;42.696;23.360;2023-03-14T10:11:20;95042.69;;;16.40;31.77
34742;BME280;20968;42.696;23.360;2023-03-14T10:14:08;95038.22;;;16.55;31.54
34742;BME280;20968;42.696;23.360;2023-03-14T10:16:44;95038.44;;;16.34;31.11
34742;BME280;20968;42.696;23.360;2023-03-14T10:19:15;95027.31;;;16.34;30.78
34742;BME280;20968;42.696;23.360;2023-03-14T10:21:52;95020.72;;;16.37;30.76
34742;BME280;20968;42.696;23.360;2023-03-14T10:26:52;95001.44;;;16.68;31.62
34742;BME280;20968;42.696;23.360;2023-03-14T10:29:18;94996.75;;;16.81;31.21
34742;BME280;20968;42.696;23.360;2023-03-14T10:32:01;94994.78;;;17.00;31.71
34742;BME280;20968;42.696;23.360;2023-03-14T10:34:33;94985.81;;;17.07;31.46
34742;BME280;20968;42.696;23.360;2023-03-14T10:37:06;94976.66;;;17.12;30.88
34742;BME280;20968;42.696;23.360;2023-03-14T10:39:45;94966.31;;;17.31;31.38
34742;BME280;20968;42.696;23.360;2023-03-14T10:42:24;94955.38;;;17.33;31.31
34742;BME280;20968;42.696;23.360;2023-03-14T10:44:56;94947.72;;;17.57;30.56
34742;BME280;20968;42.696;23.360;2023-03-14T10:47:24;94944.38;;;17.59;29.91
34742;BME280;20968;42.696;23.360;2023-03-14T10:49:51;94943.19;;;17.54;30.13
34742;BME280;20968;42.696;23.360;2023-03-14T10:52:29;94937.06;;;17.56;30.16
34742;BME280;20968;42.696;23.360;2023-03-14T10:54:58;94920.59;;;17.58;30.03
34742;BME280;20968;42.696;23.360;2023-03-14T10:57:25;94910.16;;;17.45;30.30
34742;BME280;20968;42.696;23.360;2023-03-14T10:59:51;94913.53;;;17.57;30.84
34742;BME280;20968;42.696;23.360;2023-03-14T11:05:27;94905.72;;;17.99;30.15
34742;BME280;20968;42.696;23.360;2023-03-14T11:07:52;94904.50;;;18.26;30.48
34742;BME280;20968;42.696;23.360;2023-03-14T11:10:40;94890.56;;;18.39;29.33
34742;BME280;20968;42.696;23.360;2023-03-14T11:13:33;94882.31;;;18.47;29.56
34742;BME280;20968;42.696;23.360;2023-03-14T11:21:35;94866.84;;;18.59;29.07
34742;BME280;20968;42.696;23.360;2023-03-14T11:26:44;94840.41;;;18.85;29.54
34742;BME280;20968;42.696;23.360;2023-03-14T11:29:39;94836.63;;;18.96;28.43
34742;BME280;20968;42.696;23.360;2023-03-14T11:32:17;94829.66;;;18.89;28.15
34742;BME280;20968;42.696;23.360;2023-03-14T11:34:54;94809.94;;;19.08;28.59
34742;BME280;20968;42.696;23.360;2023-03-14T11:37:32;94820.16;;;19.39;28.52
34742;BME280;20968;42.696;23.360;2023-03-14T11:40:21;94815.63;;;19.69;28.66
34742;BME280;20968;42.696;23.360;2023-03-14T11:43:38;94801.41;;;19.87;28.28
34742;BME280;20968;42.696;23.360;2023-03-14T11:45:43;94796.50;;;19.80;27.47
34742;BME280;20968;42.696;23.360;2023-03-14T11:51:55;94779.91;;;20.03;26.21
34742;BME280;20968;42.696;23.360;2023-03-14T11:54:43;94778.13;;;20.13;27.21
34742;BME280;20968;42.696;23.360;2023-03-14T11:57:19;94774.34;;;20.38;26.87
34742;BME280;20968;42.696;23.360;2023-03-14T12:00:05;94773.00;;;20.32;27.25
34742;BME280;20968;42.696;23.360;2023-03-14T12:06:32;94754.88;;;20.68;25.95
34742;BME280;20968;42.696;23.360;2023-03-14T12:09:05;94743.88;;;20.70;25.74
34742;BME280;20968;42.696;23.360;2023-03-14T12:11:36;94742.91;;;20.60;25.24
34742;BME280;20968;42.696;23.360;2023-03-14T12:16:47;94730.50;;;20.33;25.13
34742;BME280;20968;42.696;23.360;2023-03-14T12:21:50;94723.81;;;20.43;26.00
34742;BME280;20968;42.696;23.360;2023-03-14T12:24:23;94716.25;;;20.16;26.00
34742;BME280;20968;42.696;23.360;2023-03-14T12:26:56;94708.22;;;20.13;25.94
34742;BME280;20968;42.696;23.360;2023-03-14T12:29:22;94700.44;;;20.26;26.01
34742;BME280;20968;42.696;23.360;2023-03-14T12:34:39;94699.75;;;20.40;26.54
34742;BME280;20968;42.696;23.360;2023-03-14T12:45:28;94681.09;;;20.43;26.20
34742;BME280;20968;42.696;23.360;2023-03-14T12:50:56;94673.09;;;20.47;25.76
34742;BME280;20968;42.696;23.360;2023-03-14T12:56:24;94660.03;;;19.99;25.44
34742;BME280;20968;42.696;23.360;2023-03-14T13:04:50;94651.41;;;20.25;25.63
34742;BME280;20968;42.696;23.360;2023-03-14T13:13:24;94639.13;;;20.35;25.26
34742;BME280;20968;42.696;23.360;2023-03-14T13:15:45;94624.53;;;20.22;25.52
34742;BME280;20968;42.696;23.360;2023-03-14T13:18:17;94627.13;;;20.13;25.44
34742;BME280;20968;42.696;23.360;2023-03-14T13:20:51;94614.94;;;20.03;25.69
34742;BME280;20968;42.696;23.360;2023-03-14T13:23:28;94623.06;;;20.36;25.92
34742;BME280;20968;42.696;23.360;2023-03-14T13:25:54;94612.47;;;20.42;24.93
34742;BME280;20968;42.696;23.360;2023-03-14T13:28:20;94604.81;;;20.35;25.36
34742;BME280;20968;42.696;23.360;2023-03-14T13:30:48;94596.94;;;20.19;24.94
34742;BME280;20968;42.696;23.360;2023-03-14T13:33:18;94583.72;;;20.19;25.43
34742;BME280;20968;42.696;23.360;2023-03-14T13:35:46;94583.34;;;20.30;25.27
34742;BME280;20968;42.696;23.360;2023-03-14T13:38:23;94567.25;;;20.08;25.15
34742;BME280;20968;42.696;23.360;2023-03-14T13:40:52;94568.34;;;20.05;25.67
34742;BME280;20968;42.696;23.360;2023-03-14T13:46:16;94563.38;;;20.11;25.90
34742;BME280;20968;42.696;23.360;2023-03-14T13:48:47;94549.38;;;20.11;25.37
34742;BME280;20968;42.696;23.360;2023-03-14T13:51:17;94555.69;;;20.04;25.06
34742;BME280;20968;42.696;23.360;2023-03-14T13:53:44;94553.66;;;19.69;24.98
34742;BME280;20968;42.696;23.360;2023-03-14T13:56:11;94542.47;;;19.62;25.70
34742;BME280;20968;42.696;23.360;2023-03-14T13:58:38;94547.94;;;19.82;25.47
34742;BME280;20968;42.696;23.360;2023-03-14T14:04:15;94520.19;;;19.77;25.66